Time;durP1;ratioP1;P1;durP2;ratioP2;P2;SDS_P1;SDS_P2;PMS_P1;PMS_P2;Temp;Humidity;BMP_temperature;BMP_pressure;BME280_temperature;BME280_humidity;BME280_pressure;Samples;Min_cycle;Max_cycle;Signal;HPM_P1;HPM_P2
2023/12/19 00:02:09;;;;;;;9.98;8.98;;;;;;;;;;5056071;28;20435;-73
2023/12/19 00:04:36;;;;;;;10.40;9.32;;;;;;;;;;5061770;28;20443;-73
2023/12/19 00:07:03;;;;;;;10.30;9.20;;;;;;;;;;5061272;28;20436;-73
2023/12/19 00:09:32;;;;;;;10.30;9.30;;;;;;;;;;5063774;28;20941;-73
2023/12/19 00:11:59;;;;;;;10.48;9.48;;;;;;;;;;5060496;28;20407;-73
2023/12/19 00:14:26;;;;;;;10.40;9.40;;;;;;;;;;5060245;28;20954;-73
2023/12/19 00:16:53;;;;;;;10.40;9.40;;;;;;;;;;5051900;28;20950;-73
2023/12/19 00:19:20;;;;;;;10.35;9.35;;;;;;;;;;5069599;28;20415;-72
2023/12/19 00:21:47;;;;;;;10.20;9.20;;;;;;;;;;5055164;28;20425;-72
2023/12/19 00:24:14;;;;;;;9.90;9.10;;;;;;;;;;5045989;28;20414;-75
2023/12/19 00:26:42;;;;;;;10.30;9.30;;;;;;;;;;5071923;22;20437;-71
2023/12/19 00:29:09;;;;;;;9.52;8.63;;;;;;;;;;5047280;28;20436;-70
2023/12/19 00:31:36;;;;;;;10.43;9.43;;;;;;;;;;5058100;28;20424;-70
2023/12/19 00:34:03;;;;;;;10.05;9.05;;;;;;;;;;5053456;28;20421;-70
2023/12/19 00:36:30;;;;;;;9.90;9.00;;;;;;;;;;5046110;28;20438;-70
2023/12/19 00:38:57;;;;;;;9.80;8.90;;;;;;;;;;5036448;28;20411;-70
2023/12/19 00:41:24;;;;;;;10.00;9.00;;;;;;;;;;5031358;28;20419;-70
2023/12/19 00:43:53;;;;;;;10.02;9.13;;;;;;;;;;5029968;28;20423;-70
2023/12/19 00:46:20;;;;;;;10.50;9.50;;;;;;;;;;5033658;28;20502;-70
2023/12/19 00:48:47;;;;;;;9.80;8.80;;;;;;;;;;5035155;28;20461;-73
2023/12/19 00:51:14;;;;;;;10.70;9.70;;;;;;;;;;5027261;28;20503;-70
2023/12/19 00:53:42;;;;;;;10.70;9.80;;;;;;;;;;5032735;28;20423;-72
2023/12/19 00:56:09;;;;;;;9.95;8.95;;;;;;;;;;5040945;28;20426;-70
2023/12/19 00:58:37;;;;;;;10.30;9.30;;;;;;;;;;5042009;28;20475;-70
2023/12/19 01:01:06;;;;;;;9.70;8.80;;;;;;;;;;5039876;28;20458;-70
2023/12/19 01:03:33;;;;;;;9.70;8.70;;;;;;;;;;5036653;28;20435;-70
2023/12/19 01:06:00;;;;;;;10.23;9.23;;;;;;;;;;5031716;28;20932;-70
2023/12/19 01:08:27;;;;;;;9.63;8.73;;;;;;;;;;5032014;28;20842;-72
2023/12/19 01:10:55;;;;;;;9.85;8.93;;;;;;;;;;5037771;28;20407;-70
2023/12/19 01:13:22;;;;;;;9.50;8.60;;;;;;;;;;5044157;28;20423;-70
2023/12/19 01:15:49;;;;;;;9.50;8.60;;;;;;;;;;5041557;28;20438;-71
2023/12/19 01:18:17;;;;;;;10.40;9.40;;;;;;;;;;5027270;28;20415;-71
2023/12/19 01:20:47;;;;;;;9.40;8.40;;;;;;;;;;5022818;28;20423;-72
2023/12/19 01:23:14;;;;;;;9.98;9.07;;;;;;;;;;5017988;28;20524;-72
2023/12/19 01:25:41;;;;;;;10.17;9.17;;;;;;;;;;5025621;28;20524;-69
2023/12/19 01:28:07;;;;;;;9.75;8.85;;;;;;;;;;5025102;28;20538;-72
2023/12/19 01:30:34;;;;;;;9.40;8.50;;;;;;;;;;5024220;28;20435;-72
2023/12/19 01:33:01;;;;;;;10.00;9.00;;;;;;;;;;5025331;28;20861;-71
2023/12/19 01:35:30;;;;;;;9.50;8.60;;;;;;;;;;5024567;28;20858;-71
2023/12/19 01:37:57;;;;;;;10.85;9.77;;;;;;;;;;5024496;28;20415;-72
2023/12/19 01:40:24;;;;;;;9.98;9.05;;;;;;;;;;5025487;28;20443;-73
2023/12/19 01:42:51;;;;;;;10.70;9.70;;;;;;;;;;5024249;28;20755;-70
2023/12/19 01:45:19;;;;;;;11.00;9.90;;;;;;;;;;5024536;28;20441;-72
2023/12/19 01:47:46;;;;;;;10.60;9.57;;;;;;;;;;5020322;28;20508;-70
2023/12/19 01:50:14;;;;;;;10.27;9.27;;;;;;;;;;5031282;28;20422;-72
2023/12/19 01:52:43;;;;;;;10.45;9.43;;;;;;;;;;5023713;28;20774;-72
2023/12/19 01:55:10;;;;;;;11.00;9.90;;;;;;;;;;5022959;28;20549;-72
2023/12/19 01:57:38;;;;;;;11.05;10.05;;;;;;;;;;5022814;28;21056;-71
2023/12/19 02:00:06;;;;;;;11.00;9.90;;;;;;;;;;5023225;28;20437;-70
2023/12/19 02:02:33;;;;;;;11.00;9.90;;;;;;;;;;5025940;28;20472;-70
2023/12/19 02:05:00;;;;;;;10.52;9.43;;;;;;;;;;5025363;28;20423;-69
2023/12/19 02:07:27;;;;;;;10.15;9.15;;;;;;;;;;5023775;28;20904;-70
2023/12/19 02:09:56;;;;;;;10.73;9.67;;;;;;;;;;5025904;28;20415;-72
2023/12/19 02:12:23;;;;;;;10.80;9.80;;;;;;;;;;5026331;28;20866;-70
2023/12/19 02:14:50;;;;;;;10.63;9.63;;;;;;;;;;5026240;28;20415;-70
2023/12/19 02:17:17;;;;;;;9.60;8.60;;;;;;;;;;5022671;28;20947;-70
2023/12/19 02:19:45;;;;;;;10.07;9.10;;;;;;;;;;5024261;28;20410;-70
2023/12/19 02:22:12;;;;;;;10.20;9.13;;;;;;;;;;5024246;28;20510;-71
2023/12/19 02:24:41;;;;;;;10.25;9.25;;;;;;;;;;5024590;28;20824;-70
2023/12/19 02:27:08;;;;;;;9.57;8.68;;;;;;;;;;5024118;28;20497;-71
2023/12/19 02:29:35;;;;;;;9.82;8.93;;;;;;;;;;5021478;28;20431;-70
2023/12/19 02:32:02;;;;;;;9.77;8.77;;;;;;;;;;5023973;28;20487;-70
2023/12/19 02:34:30;;;;;;;9.57;8.68;;;;;;;;;;5024555;28;20474;-70
2023/12/19 02:36:57;;;;;;;9.70;8.80;;;;;;;;;;5023710;28;20423;-72
2023/12/19 02:39:24;;;;;;;10.13;9.15;;;;;;;;;;5023781;28;20418;-70
2023/12/19 02:41:52;;;;;;;9.52;8.63;;;;;;;;;;5023259;28;20438;-70
2023/12/19 02:44:19;;;;;;;9.77;8.88;;;;;;;;;;5021677;28;20414;-70
2023/12/19 02:46:46;;;;;;;9.40;8.50;;;;;;;;;;5025182;28;20438;-70
2023/12/19 02:49:13;;;;;;;9.50;8.60;;;;;;;;;;5035354;28;20525;-70
2023/12/19 02:51:41;;;;;;;9.40;8.50;;;;;;;;;;5036943;28;20494;-69
2023/12/19 02:54:08;;;;;;;8.43;7.63;;;;;;;;;;5028096;28;20411;-71
2023/12/19 02:56:35;;;;;;;9.10;8.30;;;;;;;;;;5024424;28;20425;-70
2023/12/19 02:59:04;;;;;;;9.80;8.82;;;;;;;;;;5022728;28;20442;-70
2023/12/19 03:01:31;;;;;;;9.52;8.63;;;;;;;;;;5027825;28;20433;-70
2023/12/19 03:03:58;;;;;;;9.20;8.40;;;;;;;;;;5019886;28;20427;-70
2023/12/19 03:06:25;;;;;;;8.80;8.00;;;;;;;;;;5022240;28;20830;-71
2023/12/19 03:08:57;;;;;;;9.48;8.48;;;;;;;;;;5023878;28;20454;-70
2023/12/19 03:11:24;;;;;;;8.70;7.90;;;;;;;;;;5024996;28;20495;-71
2023/12/19 03:13:51;;;;;;;9.30;8.30;;;;;;;;;;5021895;28;20912;-70
2023/12/19 03:16:19;;;;;;;9.60;8.60;;;;;;;;;;5023947;28;20854;-70
2023/12/19 03:18:46;;;;;;;8.45;7.65;;;;;;;;;;5021900;28;20785;-70
2023/12/19 03:21:14;;;;;;;8.50;7.70;;;;;;;;;;5023470;28;20542;-70
2023/12/19 03:23:41;;;;;;;8.27;7.47;;;;;;;;;;5023576;28;20451;-70
2023/12/19 03:26:08;;;;;;;7.80;7.00;;;;;;;;;;5022255;28;20430;-70
2023/12/19 03:28:37;;;;;;;8.32;7.47;;;;;;;;;;5023078;28;20498;-70
2023/12/19 03:31:04;;;;;;;8.27;7.47;;;;;;;;;;5023811;28;20761;-70
2023/12/19 03:33:33;;;;;;;7.63;6.82;;;;;;;;;;5017016;28;20450;-70
2023/12/19 03:36:00;;;;;;;8.50;7.70;;;;;;;;;;5021153;28;20450;-70
2023/12/19 03:38:27;;;;;;;7.53;6.72;;;;;;;;;;5022822;28;20782;-70
2023/12/19 03:40:54;;;;;;;7.63;6.80;;;;;;;;;;5023541;28;20877;-70
2023/12/19 03:43:21;;;;;;;8.20;7.40;;;;;;;;;;5023502;28;20415;-70
2023/12/19 03:45:48;;;;;;;7.68;6.93;;;;;;;;;;5020779;28;20596;-70
2023/12/19 03:48:15;;;;;;;7.43;6.72;;;;;;;;;;5022957;28;20431;-70
2023/12/19 03:50:44;;;;;;;7.47;6.78;;;;;;;;;;5022433;28;20423;-70
2023/12/19 03:53:11;;;;;;;7.80;7.10;;;;;;;;;;5019694;28;20433;-70
2023/12/19 03:55:38;;;;;;;6.90;6.30;;;;;;;;;;5022823;28;20457;-70
2023/12/19 03:58:05;;;;;;;6.65;6.05;;;;;;;;;;5022010;28;20502;-71
2023/12/19 04:00:32;;;;;;;6.55;5.63;;;;;;;;;;5022378;28;20522;-70
2023/12/19 04:02:59;;;;;;;5.43;5.00;;;;;;;;;;5016251;28;20426;-72
2023/12/19 04:05:26;;;;;;;6.20;5.60;;;;;;;;;;5021155;28;20541;-72
2023/12/19 04:07:55;;;;;;;5.45;4.95;;;;;;;;;;5020578;28;20415;-72
2023/12/19 04:10:22;;;;;;;5.45;4.95;;;;;;;;;;5027306;28;20501;-72
2023/12/19 04:12:49;;;;;;;5.40;4.90;;;;;;;;;;5037816;28;20450;-73
2023/12/19 04:15:16;;;;;;;6.40;5.30;;;;;;;;;;5038004;28;20427;-69
2023/12/19 04:17:43;;;;;;;5.10;4.70;;;;;;;;;;5032123;28;20910;-70
2023/12/19 04:20:11;;;;;;;5.40;4.90;;;;;;;;;;5022896;28;20414;-70
2023/12/19 04:22:38;;;;;;;5.53;5.03;;;;;;;;;;5021480;28;20434;-71
2023/12/19 04:25:07;;;;;;;5.60;5.10;;;;;;;;;;5021831;28;20915;-70
2023/12/19 04:27:34;;;;;;;4.50;4.10;;;;;;;;;;5020729;28;20441;-70
2023/12/19 04:30:01;;;;;;;4.78;4.30;;;;;;;;;;5021819;28;20434;-70
2023/12/19 04:32:28;;;;;;;5.50;5.00;;;;;;;;;;5014412;28;20418;-70
2023/12/19 04:34:55;;;;;;;5.10;4.60;;;;;;;;;;5021157;28;20525;-71
2023/12/19 04:37:22;;;;;;;5.25;4.75;;;;;;;;;;5022927;28;20434;-70
2023/12/19 04:39:49;;;;;;;5.15;4.50;;;;;;;;;;5024222;28;20441;-70
2023/12/19 04:42:18;;;;;;;5.45;4.95;;;;;;;;;;5026364;28;20419;-70
2023/12/19 04:44:45;;;;;;;4.45;4.05;;;;;;;;;;5016713;28;20687;-70
2023/12/19 04:47:12;;;;;;;5.00;4.60;;;;;;;;;;5025927;28;20423;-70
2023/12/19 04:49:40;;;;;;;4.15;3.70;;;;;;;;;;5026003;28;20770;-70
2023/12/19 04:52:07;;;;;;;4.50;4.10;;;;;;;;;;5025434;28;20438;-70
2023/12/19 04:54:34;;;;;;;4.78;4.38;;;;;;;;;;5025489;28;20611;-70
2023/12/19 04:57:01;;;;;;;4.25;3.85;;;;;;;;;;5024668;28;20434;-70
2023/12/19 04:59:31;;;;;;;4.53;4.13;;;;;;;;;;5024458;28;20430;-70
2023/12/19 05:01:58;;;;;;;4.60;4.20;;;;;;;;;;5017056;28;20442;-70
2023/12/19 05:04:25;;;;;;;4.53;4.13;;;;;;;;;;5025551;28;20435;-70
2023/12/19 05:06:52;;;;;;;4.40;4.00;;;;;;;;;;5025307;28;20442;-70
2023/12/19 05:09:20;;;;;;;4.82;4.20;;;;;;;;;;5015818;28;20439;-71
2023/12/19 05:11:47;;;;;;;4.20;3.80;;;;;;;;;;5023544;28;20554;-70
2023/12/19 05:14:14;;;;;;;4.97;4.40;;;;;;;;;;5023934;28;20577;-70
2023/12/19 05:16:42;;;;;;;5.20;4.70;;;;;;;;;;5024643;28;20418;-71
2023/12/19 05:19:09;;;;;;;5.00;4.60;;;;;;;;;;5025550;28;20849;-72
2023/12/19 05:21:40;;;;;;;5.85;5.10;;;;;;;;;;5025929;28;20857;-72
2023/12/19 05:24:09;;;;;;;5.70;5.00;;;;;;;;;;5024871;28;20851;-72
2023/12/19 05:26:36;;;;;;;6.00;5.40;;;;;;;;;;5026114;28;20536;-72
2023/12/19 05:29:03;;;;;;;5.93;5.43;;;;;;;;;;5029702;28;20435;-72
2023/12/19 05:31:30;;;;;;;6.25;5.65;;;;;;;;;;5026708;28;20886;-72
2023/12/19 05:33:58;;;;;;;6.20;5.70;;;;;;;;;;5025376;28;20501;-72
2023/12/19 05:36:25;;;;;;;7.60;6.80;;;;;;;;;;5015893;28;20422;-72
2023/12/19 05:38:52;;;;;;;6.50;5.90;;;;;;;;;;5025079;28;20423;-72
2023/12/19 05:41:19;;;;;;;6.45;5.85;;;;;;;;;;5023171;28;20629;-72
2023/12/19 05:43:47;;;;;;;7.05;6.35;;;;;;;;;;5024498;28;20454;-72
2023/12/19 05:46:14;;;;;;;6.72;6.03;;;;;;;;;;5022309;28;20566;-72
2023/12/19 05:48:42;;;;;;;8.10;6.38;;;;;;;;;;5020501;28;20532;-72
2023/12/19 05:51:10;;;;;;;6.90;6.20;;;;;;;;;;5024521;28;20415;-72
2023/12/19 05:53:38;;;;;;;7.28;6.57;;;;;;;;;;5023396;28;20423;-72
2023/12/19 05:56:05;;;;;;;7.60;6.65;;;;;;;;;;5021568;28;20880;-73
2023/12/19 05:58:32;;;;;;;7.32;6.55;;;;;;;;;;5024864;28;20422;-71
2023/12/19 06:01:00;;;;;;;6.63;5.93;;;;;;;;;;5022445;28;20435;-73
2023/12/19 06:03:27;;;;;;;7.60;6.30;;;;;;;;;;5025846;28;20422;-75
2023/12/19 06:05:54;;;;;;;8.15;6.80;;;;;;;;;;5024364;28;20423;-73
2023/12/19 06:08:23;;;;;;;7.60;6.90;;;;;;;;;;5022231;28;20462;-73
2023/12/19 06:10:51;;;;;;;7.30;6.60;;;;;;;;;;5025045;28;20949;-73
2023/12/19 06:13:18;;;;;;;8.00;6.13;;;;;;;;;;5023036;28;20833;-73
2023/12/19 06:15:45;;;;;;;7.65;6.95;;;;;;;;;;5022830;28;20438;-73
2023/12/19 06:18:12;;;;;;;7.10;6.40;;;;;;;;;;5024649;28;20453;-73
2023/12/19 06:20:42;;;;;;;6.40;5.70;;;;;;;;;;5023753;28;20473;-72
2023/12/19 06:23:09;;;;;;;6.20;5.68;;;;;;;;;;5023480;28;20482;-73
2023/12/19 06:25:38;;;;;;;6.10;5.20;;;;;;;;;;5025225;28;20423;-74
2023/12/19 06:28:05;;;;;;;6.78;5.60;;;;;;;;;;5025126;28;20892;-73
2023/12/19 06:30:33;;;;;;;5.80;5.25;;;;;;;;;;5022689;28;20928;-73
2023/12/19 06:33:00;;;;;;;5.13;4.73;;;;;;;;;;5025321;28;20858;-73
2023/12/19 06:35:28;;;;;;;6.95;5.40;;;;;;;;;;5024274;28;20907;-73
2023/12/19 06:37:55;;;;;;;5.97;4.93;;;;;;;;;;5021653;28;20886;-72
2023/12/19 06:40:22;;;;;;;5.28;4.50;;;;;;;;;;5019291;28;20422;-73
2023/12/19 06:42:51;;;;;;;6.38;5.10;;;;;;;;;;5020142;28;20415;-73
2023/12/19 06:45:18;;;;;;;5.15;4.50;;;;;;;;;;5019721;28;20876;-71
2023/12/19 06:47:46;;;;;;;5.53;5.00;;;;;;;;;;5023479;28;20480;-71
2023/12/19 06:50:13;;;;;;;4.78;4.38;;;;;;;;;;5024644;28;21007;-71
2023/12/19 06:52:40;;;;;;;4.93;4.43;;;;;;;;;;5012707;28;20762;-71
2023/12/19 06:55:07;;;;;;;5.10;4.50;;;;;;;;;;5020825;28;20916;-71
2023/12/19 06:57:34;;;;;;;4.90;4.40;;;;;;;;;;5018234;28;20419;-71
2023/12/19 07:00:05;;;;;;;4.80;4.40;;;;;;;;;;5020924;28;20437;-72
2023/12/19 07:02:32;;;;;;;4.97;4.47;;;;;;;;;;5019260;28;20414;-73
2023/12/19 07:04:59;;;;;;;4.90;4.40;;;;;;;;;;5022186;28;20885;-72
2023/12/19 07:07:27;;;;;;;4.82;4.40;;;;;;;;;;5024486;28;20560;-73
2023/12/19 07:09:54;;;;;;;5.80;4.70;;;;;;;;;;5025364;28;20767;-72
2023/12/19 07:12:21;;;;;;;4.50;4.10;;;;;;;;;;5024574;28;20905;-73
2023/12/19 07:14:48;;;;;;;4.75;4.35;;;;;;;;;;5024676;28;20512;-72
2023/12/19 07:17:16;;;;;;;4.90;4.40;;;;;;;;;;5017593;28;20446;-71
2023/12/19 07:19:44;;;;;;;5.57;5.07;;;;;;;;;;5019724;28;20434;-71
2023/12/19 07:22:11;;;;;;;4.60;4.20;;;;;;;;;;5023603;28;20425;-72
2023/12/19 07:24:38;;;;;;;4.75;4.10;;;;;;;;;;5020969;28;20419;-71
2023/12/19 07:27:05;;;;;;;4.55;3.80;;;;;;;;;;5013780;28;20427;-72
2023/12/19 07:29:32;;;;;;;4.20;3.80;;;;;;;;;;5017248;28;20434;-71
2023/12/19 07:32:00;;;;;;;4.32;3.92;;;;;;;;;;5022233;28;20426;-71
2023/12/19 07:34:29;;;;;;;4.63;4.22;;;;;;;;;;5012870;28;20428;-71
2023/12/19 07:36:56;;;;;;;4.00;3.70;;;;;;;;;;5021442;28;20422;-71
2023/12/19 07:39:23;;;;;;;4.82;4.32;;;;;;;;;;5017346;28;20407;-72
2023/12/19 07:41:50;;;;;;;4.72;3.80;;;;;;;;;;5020953;28;20440;-71
2023/12/19 07:44:17;;;;;;;4.40;4.00;;;;;;;;;;5029739;28;20510;-71
2023/12/19 07:46:44;;;;;;;5.22;4.10;;;;;;;;;;5033017;28;20419;-71
2023/12/19 07:49:11;;;;;;;3.92;3.53;;;;;;;;;;5035141;28;20490;-71
2023/12/19 07:51:40;;;;;;;4.10;3.70;;;;;;;;;;5032043;28;20920;-72
2023/12/19 07:54:07;;;;;;;4.00;3.60;;;;;;;;;;5022042;28;20506;-72
2023/12/19 07:56:34;;;;;;;4.78;4.05;;;;;;;;;;5022679;28;20438;-72
2023/12/19 07:59:01;;;;;;;3.58;3.28;;;;;;;;;;5022751;28;20468;-71
2023/12/19 08:01:28;;;;;;;3.60;3.30;;;;;;;;;;5019221;28;20452;-72
2023/12/19 08:03:55;;;;;;;3.50;3.20;;;;;;;;;;5031148;28;20426;-71
2023/12/19 08:06:22;;;;;;;4.35;3.65;;;;;;;;;;5031882;28;20419;-73
2023/12/19 08:08:52;;;;;;;5.22;3.47;;;;;;;;;;5019922;28;20797;-72
2023/12/19 08:11:19;;;;;;;3.33;3.03;;;;;;;;;;5023465;28;20496;-70
2023/12/19 08:13:48;;;;;;;4.28;3.60;;;;;;;;;;5022342;28;20453;-71
2023/12/19 08:16:15;;;;;;;3.50;3.20;;;;;;;;;;5024949;28;20434;-70
2023/12/19 08:18:42;;;;;;;3.65;3.10;;;;;;;;;;5027492;28;20431;-72
2023/12/19 08:21:09;;;;;;;3.30;3.00;;;;;;;;;;5023914;28;20434;-71
2023/12/19 08:23:37;;;;;;;3.05;2.75;;;;;;;;;;5023172;28;20443;-70
2023/12/19 08:26:09;;;;;;;3.30;3.00;;;;;;;;;;5054206;28;20407;-69
2023/12/19 08:28:36;;;;;;;3.05;2.75;;;;;;;;;;5087727;28;20405;-70
2023/12/19 08:31:03;;;;;;;2.90;2.70;;;;;;;;;;5068401;28;20437;-70
2023/12/19 08:33:31;;;;;;;3.47;3.00;;;;;;;;;;5038157;28;20428;-71
2023/12/19 08:35:58;;;;;;;3.47;2.70;;;;;;;;;;5012925;28;20909;-70
2023/12/19 08:38:25;;;;;;;4.35;3.10;;;;;;;;;;4873981;28;2020947;-69
2023/12/19 08:40:52;;;;;;;5.00;2.90;;;;;;;;;;4893504;29;20438;-71
2023/12/19 08:43:20;;;;;;;4.50;2.88;;;;;;;;;;4951335;28;20445;-69
2023/12/19 08:45:48;;;;;;;3.53;2.97;;;;;;;;;;4969973;28;20440;-70
2023/12/19 08:48:15;;;;;;;8.75;2.95;;;;;;;;;;4964360;28;20417;-69
2023/12/19 08:50:42;;;;;;;3.40;2.78;;;;;;;;;;4879176;29;20450;-69
2023/12/19 10:56:26;;;;;;;3.22;2.10;;;;;;;;;;4393171;31;1725894;-65
2023/12/19 10:58:56;;;;;;;3.80;2.00;;;;;;;;;;4562021;30;20902;-66
2023/12/19 11:01:26;;;;;;;5.45;2.38;;;;;;;;;;4601636;31;20521;-66
2023/12/19 11:03:55;;;;;;;4.43;2.50;;;;;;;;;;4607544;31;20461;-66
2023/12/19 11:06:23;;;;;;;6.32;2.15;;;;;;;;;;4599682;31;20482;-66
2023/12/19 11:08:51;;;;;;;4.80;1.90;;;;;;;;;;4602431;31;20614;-66
2023/12/19 11:11:21;;;;;;;3.90;2.10;;;;;;;;;;4601380;31;20477;-66
2023/12/19 11:13:50;;;;;;;4.78;1.92;;;;;;;;;;4598340;31;20539;-66
2023/12/19 11:16:20;;;;;;;2.30;1.70;;;;;;;;;;4606092;31;20454;-65
2023/12/19 11:18:50;;;;;;;3.35;1.90;;;;;;;;;;4603161;31;20830;-66
2023/12/19 11:21:19;;;;;;;4.20;1.60;;;;;;;;;;4598318;31;20475;-66
2023/12/19 11:23:50;;;;;;;3.42;1.50;;;;;;;;;;4604601;31;20758;-66
2023/12/19 11:26:18;;;;;;;3.60;1.80;;;;;;;;;;4598551;31;20473;-66
2023/12/19 11:28:46;;;;;;;3.75;1.50;;;;;;;;;;4595005;31;20531;-66
2023/12/19 11:31:30;;;;;;;3.72;1.80;;;;;;;;;;4593332;31;20477;-64
2023/12/19 11:33:58;;;;;;;4.55;1.30;;;;;;;;;;4588628;31;20559;-66
2023/12/19 11:36:26;;;;;;;5.90;2.05;;;;;;;;;;4587606;31;20473;-66
2023/12/19 11:39:14;;;;;;;3.10;1.35;;;;;;;;;;4579798;31;20583;-66
2023/12/19 11:41:41;;;;;;;1.88;1.50;;;;;;;;;;4563136;31;20510;-69
2023/12/19 11:44:08;;;;;;;3.90;1.60;;;;;;;;;;4568565;31;20469;-66
2023/12/19 11:46:37;;;;;;;5.80;1.80;;;;;;;;;;4569735;31;20476;-66
2023/12/19 11:49:04;;;;;;;2.80;1.40;;;;;;;;;;4576644;31;20577;-67
2023/12/19 11:51:56;;;;;;;3.05;1.60;;;;;;;;;;4571045;31;20480;-66
2023/12/19 11:54:23;;;;;;;3.25;1.90;;;;;;;;;;4575613;31;20954;-66
2023/12/19 11:57:01;;;;;;;3.22;1.60;;;;;;;;;;4697467;30;20929;-67
2023/12/19 11:59:47;;;;;;;4.88;1.90;;;;;;;;;;4813859;29;20836;-67
2023/12/19 12:02:26;;;;;;;4.50;1.65;;;;;;;;;;4825993;29;20474;-67
2023/12/19 12:05:03;;;;;;;2.90;1.80;;;;;;;;;;4819082;29;20602;-66
2023/12/19 12:07:30;;;;;;;4.10;1.90;;;;;;;;;;4810202;29;20837;-67
2023/12/19 12:10:01;;;;;;;2.43;1.50;;;;;;;;;;4821174;29;20538;-67
2023/12/19 12:12:31;;;;;;;4.97;1.98;;;;;;;;;;4813963;29;20746;-67
2023/12/19 12:17:34;;;;;;;4.07;1.70;;;;;;;;;;4857925;29;20814;-71
2023/12/19 12:20:02;;;;;;;3.40;1.90;;;;;;;;;;4863916;29;20440;-70
2023/12/19 12:22:29;;;;;;;3.33;1.80;;;;;;;;;;4860306;29;20425;-70
2023/12/19 12:24:56;;;;;;;4.40;1.80;;;;;;;;;;4858365;29;20507;-70
2023/12/19 12:27:24;;;;;;;2.13;1.60;;;;;;;;;;4850033;29;20454;-69
2023/12/19 12:29:51;;;;;;;4.37;2.00;;;;;;;;;;4858457;29;20504;-69
2023/12/19 12:32:18;;;;;;;8.50;3.63;;;;;;;;;;4861313;29;20448;-69
2023/12/19 12:34:47;;;;;;;4.40;2.58;;;;;;;;;;4858162;29;20426;-69
2023/12/19 12:37:16;;;;;;;5.28;2.00;;;;;;;;;;4858229;29;20426;-68
2023/12/19 12:39:43;;;;;;;3.53;1.95;;;;;;;;;;4846221;29;20452;-69
2023/12/19 12:42:13;;;;;;;3.38;2.00;;;;;;;;;;4842280;29;21242;-69
2023/12/19 12:44:40;;;;;;;3.38;1.90;;;;;;;;;;4840351;29;20447;-69
2023/12/19 12:47:08;;;;;;;2.70;1.70;;;;;;;;;;4836863;29;20460;-69
2023/12/19 12:49:35;;;;;;;4.95;2.10;;;;;;;;;;4839052;29;20440;-70
2023/12/19 12:52:04;;;;;;;3.73;2.00;;;;;;;;;;4839401;29;20440;-70
2023/12/19 12:54:31;;;;;;;3.88;2.13;;;;;;;;;;4835671;29;20440;-70
2023/12/19 12:56:59;;;;;;;3.85;2.30;;;;;;;;;;4897812;28;20451;-68
2023/12/19 12:59:28;;;;;;;4.97;2.50;;;;;;;;;;4965600;28;20856;-69
2023/12/19 13:01:56;;;;;;;4.43;3.13;;;;;;;;;;5008140;28;20429;-69
2023/12/19 13:04:23;;;;;;;4.18;2.40;;;;;;;;;;5000467;28;20425;-69
2023/12/19 13:06:51;;;;;;;6.07;2.40;;;;;;;;;;4999061;28;20444;-68
2023/12/19 13:09:20;;;;;;;5.00;2.60;;;;;;;;;;4999731;28;20496;-70
2023/12/19 13:11:50;;;;;;;4.05;2.58;;;;;;;;;;5005654;28;20428;-70
2023/12/19 13:14:17;;;;;;;4.72;2.28;;;;;;;;;;5007784;28;20432;-71
2023/12/19 13:16:45;;;;;;;3.88;2.03;;;;;;;;;;5001865;28;20935;-70
2023/12/19 13:19:14;;;;;;;3.27;2.20;;;;;;;;;;5007933;28;20494;-71
2023/12/19 13:21:41;;;;;;;3.90;2.40;;;;;;;;;;4996961;28;20469;-72
2023/12/19 13:24:09;;;;;;;10.48;3.80;;;;;;;;;;5006288;28;20444;-72
2023/12/19 13:26:37;;;;;;;4.38;2.38;;;;;;;;;;5000460;28;20438;-72
2023/12/19 13:29:06;;;;;;;3.00;2.50;;;;;;;;;;4999313;28;20924;-71
2023/12/19 13:31:33;;;;;;;5.78;2.80;;;;;;;;;;5005379;28;20473;-71
2023/12/19 13:34:00;;;;;;;5.88;2.72;;;;;;;;;;4998502;28;20799;-72
2023/12/19 13:36:27;;;;;;;4.90;3.45;;;;;;;;;;4996874;28;20436;-73
2023/12/19 13:38:56;;;;;;;5.00;3.95;;;;;;;;;;5002817;28;20589;-73
2023/12/19 13:41:23;;;;;;;5.70;3.70;;;;;;;;;;4978878;28;20505;-74
2023/12/19 13:43:51;;;;;;;5.93;4.00;;;;;;;;;;4978837;28;20427;-73
2023/12/19 13:46:18;;;;;;;3.63;3.15;;;;;;;;;;4973583;28;20424;-74
2023/12/19 13:48:45;;;;;;;5.00;3.30;;;;;;;;;;4977376;28;20439;-74
2023/12/19 13:51:12;;;;;;;4.63;3.42;;;;;;;;;;4978789;28;20959;-77
2023/12/19 13:53:40;;;;;;;4.30;3.35;;;;;;;;;;4984218;28;20893;-76
2023/12/19 13:56:08;;;;;;;4.20;3.60;;;;;;;;;;4980081;28;20442;-77
2023/12/19 13:58:35;;;;;;;4.75;4.20;;;;;;;;;;5012216;28;20973;-77
2023/12/19 14:01:04;;;;;;;4.68;4.18;;;;;;;;;;5034330;28;20764;-79
2023/12/19 14:03:31;;;;;;;6.13;4.40;;;;;;;;;;5029900;28;20439;-76
2023/12/19 14:05:59;;;;;;;6.82;4.40;;;;;;;;;;5035024;28;20419;-76
2023/12/19 14:08:27;;;;;;;5.55;4.40;;;;;;;;;;5030740;28;20442;-74
2023/12/19 14:10:54;;;;;;;6.50;5.15;;;;;;;;;;5015782;28;20942;-73
2023/12/19 14:13:22;;;;;;;5.70;5.00;;;;;;;;;;5028807;28;20422;-74
2023/12/19 14:15:53;;;;;;;4.97;4.57;;;;;;;;;;5026992;28;20438;-73
2023/12/19 14:18:21;;;;;;;5.03;4.53;;;;;;;;;;5027904;28;20427;-73
2023/12/19 14:20:48;;;;;;;5.80;4.17;;;;;;;;;;5028912;28;20477;-75
2023/12/19 14:23:15;;;;;;;4.45;4.00;;;;;;;;;;5028522;28;20454;-75
2023/12/19 14:25:43;;;;;;;5.18;3.88;;;;;;;;;;5011860;28;20435;-76
2023/12/19 14:28:10;;;;;;;4.35;3.47;;;;;;;;;;5017919;28;20430;-76
2023/12/19 14:30:38;;;;;;;4.93;3.60;;;;;;;;;;5020596;28;20645;-64
2023/12/19 14:33:06;;;;;;;4.82;3.70;;;;;;;;;;5019101;28;20703;-77
2023/12/19 14:35:34;;;;;;;4.67;3.93;;;;;;;;;;5021776;28;20481;-77
2023/12/19 14:38:01;;;;;;;5.15;4.40;;;;;;;;;;5019524;28;20438;-75
2023/12/19 14:40:28;;;;;;;5.18;4.60;;;;;;;;;;5017776;28;20439;-73
2023/12/19 14:42:55;;;;;;;5.90;4.70;;;;;;;;;;5030565;28;20433;-72
2023/12/19 14:45:23;;;;;;;5.60;4.20;;;;;;;;;;5022527;28;20431;-72
2023/12/19 14:47:50;;;;;;;5.87;4.87;;;;;;;;;;5018916;28;20432;-73
2023/12/19 14:50:19;;;;;;;5.78;4.90;;;;;;;;;;5032134;28;20472;-72
2023/12/19 14:52:48;;;;;;;6.05;4.95;;;;;;;;;;5019629;28;20566;-73
2023/12/19 14:55:15;;;;;;;5.00;4.50;;;;;;;;;;5026463;28;20466;-73
2023/12/19 14:57:42;;;;;;;6.80;4.15;;;;;;;;;;5011933;28;20502;-72
2023/12/19 15:00:10;;;;;;;6.30;4.70;;;;;;;;;;5021542;28;20439;-73
2023/12/19 15:02:37;;;;;;;6.80;4.57;;;;;;;;;;5024870;28;20500;-72
2023/12/19 15:05:05;;;;;;;4.60;4.10;;;;;;;;;;5022488;28;20435;-73
2023/12/19 15:07:32;;;;;;;4.75;4.30;;;;;;;;;;5024922;28;20445;-75
2023/12/19 15:10:01;;;;;;;5.90;4.40;;;;;;;;;;5024201;28;20428;-73
2023/12/19 15:12:28;;;;;;;5.43;4.17;;;;;;;;;;5028609;28;21135;-73
2023/12/19 15:14:55;;;;;;;6.60;4.10;;;;;;;;;;5021573;28;20407;-72
2023/12/19 15:17:22;;;;;;;4.27;3.40;;;;;;;;;;5027470;28;20490;-72
2023/12/19 15:19:49;;;;;;;4.10;3.70;;;;;;;;;;5030626;28;20425;-72
2023/12/19 15:22:17;;;;;;;4.70;3.70;;;;;;;;;;5019871;28;20452;-72
2023/12/19 15:24:44;;;;;;;5.57;5.07;;;;;;;;;;5024522;28;20711;-73
2023/12/19 15:27:13;;;;;;;5.23;4.07;;;;;;;;;;5019898;28;20432;-73
2023/12/19 15:29:40;;;;;;;5.25;4.55;;;;;;;;;;5022483;28;20407;-73
2023/12/19 15:32:07;;;;;;;5.40;4.40;;;;;;;;;;5026615;28;20782;-73
2023/12/19 15:34:34;;;;;;;4.60;3.80;;;;;;;;;;5021329;28;20417;-73
2023/12/19 15:37:01;;;;;;;4.55;4.15;;;;;;;;;;5027031;28;20443;-74
2023/12/19 15:39:29;;;;;;;5.63;4.25;;;;;;;;;;5018729;28;20439;-72
2023/12/19 15:41:56;;;;;;;5.93;4.38;;;;;;;;;;5022986;28;20529;-73
2023/12/19 15:44:25;;;;;;;5.73;4.60;;;;;;;;;;5020566;28;20492;-73
2023/12/19 15:46:52;;;;;;;6.18;4.10;;;;;;;;;;5026447;28;20422;-74
2023/12/19 15:49:19;;;;;;;4.70;4.20;;;;;;;;;;5026192;28;20423;-73
2023/12/19 15:51:46;;;;;;;5.53;4.18;;;;;;;;;;5032199;28;20425;-74
2023/12/19 15:54:13;;;;;;;5.47;4.53;;;;;;;;;;5021198;28;21050;-75
2023/12/19 15:56:42;;;;;;;5.22;4.40;;;;;;;;;;5017950;28;20438;-73
2023/12/19 15:59:09;;;;;;;5.60;4.75;;;;;;;;;;5005343;28;20466;-72
2023/12/19 16:01:38;;;;;;;6.47;5.00;;;;;;;;;;4982277;28;20937;-75
2023/12/19 16:04:05;;;;;;;7.20;5.50;;;;;;;;;;4983864;28;20952;-74
2023/12/19 16:06:32;;;;;;;7.30;5.00;;;;;;;;;;4982168;28;20434;-75
2023/12/19 16:08:59;;;;;;;7.30;5.40;;;;;;;;;;4982813;28;20444;-74
2023/12/19 16:11:27;;;;;;;6.28;5.68;;;;;;;;;;4988959;28;20422;-76
2023/12/19 16:13:54;;;;;;;7.35;5.28;;;;;;;;;;4986613;28;20419;-76
2023/12/19 16:16:22;;;;;;;5.90;4.80;;;;;;;;;;4987579;28;20471;-75
2023/12/19 16:18:52;;;;;;;5.50;4.65;;;;;;;;;;4987200;28;20440;-75
2023/12/19 16:21:19;;;;;;;6.05;4.35;;;;;;;;;;4984396;28;20447;-73
2023/12/19 16:23:46;;;;;;;5.07;4.00;;;;;;;;;;4977849;28;20423;-74
2023/12/19 16:26:13;;;;;;;6.40;4.30;;;;;;;;;;4984477;28;20940;-73
2023/12/19 16:28:41;;;;;;;6.90;4.40;;;;;;;;;;4987830;28;20426;-74
2023/12/19 16:31:14;;;;;;;6.15;3.92;;;;;;;;;;4992830;28;20412;-73
2023/12/19 16:33:41;;;;;;;3.72;3.40;;;;;;;;;;4980256;28;20444;-73
2023/12/19 16:36:12;;;;;;;4.57;3.60;;;;;;;;;;4978212;28;20445;-73
2023/12/19 16:38:40;;;;;;;3.63;3.30;;;;;;;;;;4977784;28;20444;-75
2023/12/19 16:41:07;;;;;;;4.70;3.50;;;;;;;;;;4983487;28;20995;-74
2023/12/19 16:43:34;;;;;;;4.72;2.95;;;;;;;;;;4972077;28;20412;-75
2023/12/19 16:46:01;;;;;;;4.70;3.33;;;;;;;;;;4988893;28;20445;-73
2023/12/19 16:48:28;;;;;;;3.95;3.20;;;;;;;;;;4982781;28;20424;-73
2023/12/19 16:50:55;;;;;;;4.90;3.00;;;;;;;;;;4990136;28;20444;-74